Potsdam, NY

44° 42' 44"N, 74° 57' 12"W, Elevation 460 ft.
Eastern Time

Hourly observations for the last 72 hours

Date Time Temperature (°F) Humi-
dity

(%)
Wind
(mph)
Pressure Rain (in)
Air Dew 6 Hour 1 Hr 3 Hr 6 Hr Day
Alt
(in)
Sea
Level

(mb)
Max Min
17 00:00 -2.6 -6.5 83 Calm 30.36 1028.1 0.01
16 23:00 -1.5 -5.7 82 Calm 30.35 1027.7 0.01
16 22:00 1.0 -3.7 80 Calm 30.33 1027.3 0.01
16 21:00 4.4 -2.1 74 Calm 30.31 1026.5 0.01
16 20:00 7.6 0.2 71 Calm 30.28 1025.5 0.01
16 19:00 9.5 1.4 36.2 9.5 69 Calm 30.25 1024.4 0.01
16 18:00 11.8 3.3 68 Calm 30.18 1022.2 0.01
16 17:00 14.6 5.6 67 Calm 30.12 1020.1 0.01
16 16:00 18.7 8.2 63 Calm 30.06 1017.8 0.01
16 15:00 24.2 11.9 59 Calm 29.98 1015.2 0.01
16 14:00 27.2 19.7 73 Calm 29.92 1013.1 0.01
16 13:00 36.2 25.6 36.2 27.2 65 W 0 G 5 29.84 1010.5 0.01 0.01 0.01 0.01
16 12:00 34.0 27.6 77 Calm 29.83 1010.2 0.00
16 11:00 32.9 28.6 84 W 0 G 1 29.83 1010.2 0.00
16 10:00 30.3 27.7 90 W 0 G 1 29.83 1010.3 0.00
16 09:00 28.5 26.2 91 Calm 29.82 1010.0 0.00
16 08:00 27.3 25.3 92 Calm 29.82 1009.8 0.00
16 07:00 27.4 25.4 29.3 27.4 92 SSW 0 G 6 29.82 1009.8 0.00
16 06:00 27.9 25.6 91 Calm 29.82 1010.0 0.00
16 05:00 28.1 25.5 90 Calm 29.82 1009.9 0.00
16 04:00 28.4 25.3 88 Calm 29.84 1010.6 0.00
16 03:00 29.0 25.1 85 E 0 G 11 29.86 1011.3 0.00
16 02:00 29.2 25.8 87 Calm 29.87 1011.6 0.00
16 01:00 29.0 27.0 30.2 28.9 92 WSW 0 G 13 29.88 1011.8 0.00
16 00:00 29.3 27.3 92 Calm 29.90 1012.6 0.00
15 23:00 29.4 27.6 93 SSW 3 G 12 29.93 1013.4 0.00
15 22:00 29.7 27.9 93 SSW 0 G 14 29.95 1014.2 0.00
15 21:00 30.1 28.3 93 WSW 0 G 1 29.98 1015.2 0.00
15 20:00 30.1 28.3 93 SSW 4 G 10 30.00 1015.8 0.00
15 19:00 30.1 27.8 30.1 28.6 91 WSW 0 G 2 30.01 1016.4 0.00
15 18:00 29.6 27.0 90 S 0 G 8 30.03 1016.9 0.00
15 17:00 29.2 26.9 91 SSW 2 G 5 30.04 1017.3 0.00
15 16:00 29.0 26.4 90 SW 0 G 3 30.06 1017.8 0.00
15 15:00 29.0 25.9 88 WNW 0 G 4 30.06 1018.0 0.00
15 14:00 28.8 25.1 86 WNW 0 G 4 30.07 1018.3 0.00
15 13:00 28.6 24.7 28.6 22.1 85 WNW 0 G 4 30.08 1018.5 0.00
15 12:00 27.6 24.0 86 SW 0 G 5 30.10 1019.4 0.00
15 11:00 26.6 23.5 88 S 1 G 6 30.14 1020.6 0.00
15 10:00 24.8 22.3 90 NNW 0 G 1 30.15 1021.1 0.00
15 09:00 23.7 21.5 91 Calm 30.15 1020.9 0.00
15 08:00 22.7 20.5 91 SW 0 G 1 30.14 1020.7 0.00
15 07:00 22.1 19.9 22.4 17.8 91 WSW 0 G 1 30.14 1020.6 0.00
15 06:00 21.8 19.6 91 SW 0 G 1 30.14 1020.5 0.00
15 05:00 22.3 19.3 88 W 0 G 4 30.14 1020.7 0.00
15 04:00 21.7 18.2 86 Calm 30.14 1020.8 0.00
15 03:00 20.1 16.6 86 Calm 30.16 1021.3 0.00
15 02:00 19.0 15.2 85 Calm 30.17 1021.7 0.00
15 01:00 17.8 14.3 17.8 9.9 86 Calm 30.18 1022.0 0.00
15 00:00 16.5 13.3 87 Calm 30.19 1022.2 0.00
14 23:00 14.1 11.2 88 Calm 30.20 1022.9 0.00
14 22:00 11.5 8.4 87 Calm 30.22 1023.5 0.00
14 21:00 11.3 7.1 83 SSW 0 G 2 30.23 1023.7 0.00
14 20:00 10.9 7.0 84 Calm 30.23 1023.7 0.00
14 19:00 11.2 6.8 20.5 11.2 82 Calm 30.24 1024.1 0.00
14 18:00 12.1 6.8 79 Calm 30.25 1024.6 0.00
14 17:00 16.3 9.5 74 Calm 30.25 1024.3 0.00
14 16:00 19.0 10.8 70 Calm 30.26 1024.8 0.00
14 15:00 20.0 11.1 68 W 0 G 3 30.28 1025.3 0.00
14 14:00 19.8 10.9 68 W 0 G 2 30.29 1025.7 0.00
14 13:00 18.5 10.7 18.6 -9.2 71 WNW 2 G 7 30.31 1026.6 0.00
14 12:00 16.1 9.3 74 WNW 2 G 6 30.34 1027.4 0.00
14 11:00 13.0 7.4 78 SSW 0 G 3 30.36 1028.3 0.00
14 10:00 6.3 3.3 87 Calm 30.40 1029.3 0.00
14 09:00 -2.5 -5.4 87 Calm 30.40 1029.6 0.00
14 08:00 -8.4 -12.2 83 Calm 30.40 1029.5 0.00
14 07:00 -9.2 -13.0 -4.1 -9.2 83 Calm 30.41 1029.8 0.00
14 06:00 -6.5 -10.1 84 Calm 30.40 1029.5 0.00
14 05:00 -5.2 -8.5 85 Calm 30.39 1029.1 0.00
14 04:00 -7.9 -11.7 83 Calm 30.41 1029.8 0.00
14 03:00 -5.8 -9.4 84 Calm 30.43 1030.5 0.00
14 02:00 -5.7 -9.0 85 Calm 30.43 1030.5 0.00
14 01:00 -5.0 -8.6 2.8 -5.0 84 Calm 30.43 1030.7 0.00

Data generated by WxSolution Version 1.9.1.5, Build 2018.05.20.